Flight Track Log - Related Links

Times and Time Zones

All times are in EDT time to prevent confusion due to time zone crossing. See the N531SR flight status page for this flight to view local times or setup timezone preferences in your user account.

Time Position Orientation Groundspeed Altitude Reporting Facility
EDT Latitude Longitude Course Direction KTS MPH feet Rate Location/Type
Thu 01:27:37 PM 42.4667 -71.7333 154° Southeast 159 183 3,000  Level KA90
Thu 01:28:37 PM 42.4167 -71.7000 154° Southeast 158 182 3,000  Level KA90
Thu 01:29:37 PM 42.3833 -71.6667 144° Southeast 154 177 3,000 381 Level KA90
Thu 01:30:43 PM 42.3667 -71.6167 114° Southeast 140 161 3,800 714 Climbing KA90
Thu 01:31:43 PM 42.3333 -71.5833 144° Southeast 131 151 4,500 600 Climbing KA90
Thu 01:32:43 PM 42.3167 -71.5333 114° Southeast 135 155 5,000 300 Climbing KA90
Thu 01:33:43 PM 42.3000 -71.4833 114° Southeast 151 174 5,100  Climbing KA90
Thu 01:34:43 PM 42.3000 -71.4333 90° East 157 181 5,000  Descending KA90
Thu 01:35:43 PM 42.3000 -71.3667 90° East 157 181 5,100  Climbing KA90
Thu 01:36:43 PM 42.3000 -71.3167 90° East 152 175 5,000 -53 Descending KA90
Thu 01:37:37 PM 42.3167 -71.2667 66° East 152 175 5,000 48 Level KA90
Thu 01:38:49 PM 42.3333 -71.2000 71° East 151 174 5,100 48 Climbing KA90
Thu 01:39:43 PM 42.3500 -71.1500 66° East 151 174 5,100 -50 Level KA90
Thu 01:40:49 PM 42.3500 -71.0833 90° East 150 173 5,000  Descending KA90
Thu 01:41:37 PM 42.3500 -71.0500 90° East 150 173 5,100 59 Climbing KA90
Thu 01:42:31 PM 42.3333 -71.0000 114° Southeast 151 174 5,100  Level KA90
Thu 01:43:38 PM 42.3000 -70.9500 132° Southeast 151 174 5,100  Level KA90
Thu 01:44:43 PM 42.2833 -70.8833 109° East 153 176 5,100  Level KA90
Thu 01:45:43 PM 42.2667 -70.8333 114° Southeast 151 174 5,100  Level KA90
Thu 01:46:44 PM 42.2500 -70.7833 114° Southeast 152 175 5,100 -55 Level KA90
Thu 01:47:32 PM 42.2333 -70.7333 114° Southeast 151 174 5,000  Descending KA90
Thu 01:48:43 PM 42.2167 -70.6833 114° Southeast 150 173 5,100 85 Climbing KA90
Thu 01:50:00 PM 42.1961 -70.6214 114° Southeast  Level FlightAware Approximate
Thu 01:57:00 PM 42.0878 -70.2818 111° Southeast  Level FlightAware Approximate
Thu 01:58:00 PM 42.0737 -70.2325 111° Southeast  Level FlightAware Approximate
Thu 01:59:00 PM 42.0597 -70.1833 111° Southeast  Level FlightAware Approximate
Thu 02:00:00 PM 42.0456 -70.1341 111° Southeast  Level FlightAware Approximate
Thu 02:01:00 PM 42.0315 -70.0849 111° Southeast  Level FlightAware Approximate
Thu 02:02:00 PM 42.0173 -70.0357 111° Southeast  Level FlightAware Approximate
Thu 02:03:00 PM 41.9794 -70.0347 182° South  Level FlightAware Approximate
Thu 02:04:00 PM 41.9403 -70.0361 182° South  Level FlightAware Approximate
Thu 02:05:00 PM 41.9011 -70.0375 182° South  Level FlightAware Approximate
Thu 02:06:00 PM 41.8620 -70.0389 182° South  Level FlightAware Approximate
Thu 02:07:00 PM 41.8228 -70.0403 182° South  Level FlightAware Approximate
Thu 02:08:00 PM 41.7837 -70.0417 182° South  Level FlightAware Approximate
Thu 02:09:00 PM 41.7445 -70.0431 182° South  Level FlightAware Approximate
Thu 02:10:00 PM 41.7054 -70.0445 182° South  Level FlightAware Approximate
Thu 02:11:00 PM 41.6662 -70.0459 182° South  Level FlightAware Approximate
Thu 02:12:00 PM 41.6271 -70.0473 182° South  Level FlightAware Approximate
Thu 02:13:00 PM 41.5879 -70.0487 182° South  Level FlightAware Approximate
Thu 02:14:00 PM 41.5487 -70.0500 180° South  Level FlightAware Approximate
Thu 02:15:00 PM 41.5095 -70.0500 180° South  Level FlightAware Approximate
Thu 02:16:00 PM 41.4704 -70.0500 180° South  Level FlightAware Approximate
Thu 02:17:00 PM 41.4312 -70.0500 180° South  Level FlightAware Approximate
Thu 02:18:00 PM 41.3921 -70.0500 180° South  Level FlightAware Approximate
Thu 02:19:00 PM 41.3529 -70.0500 180° South  Level FlightAware Approximate
Thu 02:20:00 PM 41.3137 -70.0500 180° South  Level FlightAware Approximate
Thu 02:21:00 PM 41.2746 -70.0500 180° South  Level FlightAware Approximate
Thu 02:22:00 PM 41.2500 -70.0500 180° South  Level FlightAware Approximate
Thu 02:23:00 PM 41.2531 -70.0603 180° South  Level Estimated
Thu 02:24:00 PM 41.2531 -70.0603 180° South  Level Estimated
Thu 02:25:00 PM 41.2531 -70.0603 180° South  Level Estimated
Thu 02:26:00 PM 41.2531 -70.0603 180° South  Level Estimated
Thu 02:27:00 PM 41.2531 -70.0603 180° South  Level Estimated
Thu 02:28:00 PM 41.2531 -70.0603 180° South  Level Estimated
Thu 02:29:00 PM 41.2531 -70.0603 180° South  Level Estimated
Thu 02:30:00 PM 41.2531 -70.0603 180° South  Level Estimated
Thu 02:31:00 PM 41.2531 -70.0603 180° South  Level Estimated
Thu 02:32:00 PM 41.2531 -70.0603 180° South  Level Estimated
Thu 02:33:00 PM 41.2531 -70.0603 180° South  Level Estimated

Login

Don't have an account? Register now (free) for customized features, flight alerts, and more!